sensor_id;sensor_type;location;lat;lon;timestamp;pressure;altitude;pressure_sealevel;temperature;humidity
15405;BME280;7801;48.124;11.590;2024-02-21T00:01:25;96417.13;;;7.28;71.96
15405;BME280;7801;48.124;11.590;2024-02-21T00:03:50;96416.66;;;7.31;71.54
15405;BME280;7801;48.124;11.590;2024-02-21T00:06:15;96416.78;;;6.81;73.31
15405;BME280;7801;48.124;11.590;2024-02-21T00:08:41;96419.31;;;6.93;73.47
15405;BME280;7801;48.124;11.590;2024-02-21T00:11:06;96415.28;;;7.07;72.75
15405;BME280;7801;48.124;11.590;2024-02-21T00:13:31;96419.41;;;6.81;73.98
15405;BME280;7801;48.124;11.590;2024-02-21T00:15:57;96419.97;;;6.66;74.30
15405;BME280;7801;48.124;11.590;2024-02-21T00:18:22;96407.00;;;6.98;73.35
15405;BME280;7801;48.124;11.590;2024-02-21T00:20:49;96408.78;;;6.76;74.49
15405;BME280;7801;48.124;11.590;2024-02-21T00:23:15;96413.91;;;6.49;75.20
15405;BME280;7801;48.124;11.590;2024-02-21T00:25:40;96407.22;;;6.58;75.15
15405;BME280;7801;48.124;11.590;2024-02-21T00:28:06;96411.03;;;6.34;75.58
15405;BME280;7801;48.124;11.590;2024-02-21T00:30:31;96405.13;;;6.27;76.53
15405;BME280;7801;48.124;11.590;2024-02-21T00:32:57;96406.53;;;6.68;75.43
15405;BME280;7801;48.124;11.590;2024-02-21T00:35:22;96400.34;;;6.57;75.79
15405;BME280;7801;48.124;11.590;2024-02-21T00:37:48;96392.81;;;6.49;76.05
15405;BME280;7801;48.124;11.590;2024-02-21T00:40:13;96391.69;;;6.45;76.40
15405;BME280;7801;48.124;11.590;2024-02-21T00:42:41;96393.53;;;6.78;75.75
15405;BME280;7801;48.124;11.590;2024-02-21T00:45:07;96384.44;;;6.52;76.36
15405;BME280;7801;48.124;11.590;2024-02-21T00:47:33;96385.50;;;6.34;77.51
15405;BME280;7801;48.124;11.590;2024-02-21T00:49:59;96375.41;;;6.48;77.13
15405;BME280;7801;48.124;11.590;2024-02-21T00:52:25;96374.75;;;6.74;76.00
15405;BME280;7801;48.124;11.590;2024-02-21T00:54:51;96379.59;;;6.44;76.92
15405;BME280;7801;48.124;11.590;2024-02-21T00:57:17;96372.03;;;6.69;76.14
15405;BME280;7801;48.124;11.590;2024-02-21T00:59:42;96375.72;;;6.68;76.57
15405;BME280;7801;48.124;11.590;2024-02-21T01:02:07;96374.31;;;6.61;76.61
15405;BME280;7801;48.124;11.590;2024-02-21T01:04:34;96375.28;;;6.38;77.36
15405;BME280;7801;48.124;11.590;2024-02-21T01:06:59;96380.19;;;6.68;76.82
15405;BME280;7801;48.124;11.590;2024-02-21T01:09:25;96373.34;;;6.50;76.75
15405;BME280;7801;48.124;11.590;2024-02-21T01:11:50;96379.25;;;6.57;77.02
15405;BME280;7801;48.124;11.590;2024-02-21T01:14:15;96372.13;;;6.58;76.80
15405;BME280;7801;48.124;11.590;2024-02-21T01:16:41;96366.91;;;6.41;77.36
15405;BME280;7801;48.124;11.590;2024-02-21T01:19:06;96362.56;;;6.35;77.58
15405;BME280;7801;48.124;11.590;2024-02-21T01:21:31;96364.41;;;6.51;77.78
15405;BME280;7801;48.124;11.590;2024-02-21T01:23:57;96366.16;;;6.45;77.26
15405;BME280;7801;48.124;11.590;2024-02-21T01:26:22;96360.34;;;6.43;77.65
15405;BME280;7801;48.124;11.590;2024-02-21T01:28:47;96352.16;;;6.45;77.29
15405;BME280;7801;48.124;11.590;2024-02-21T01:31:13;96349.41;;;6.35;77.94
15405;BME280;7801;48.124;11.590;2024-02-21T01:33:38;96349.22;;;6.58;76.59
15405;BME280;7801;48.124;11.590;2024-02-21T01:36:04;96343.91;;;6.75;76.44
15405;BME280;7801;48.124;11.590;2024-02-21T01:38:32;96344.31;;;6.83;75.67
15405;BME280;7801;48.124;11.590;2024-02-21T01:40:58;96345.59;;;7.03;75.08
15405;BME280;7801;48.124;11.590;2024-02-21T01:43:24;96341.66;;;6.83;75.65
15405;BME280;7801;48.124;11.590;2024-02-21T01:45:55;96341.59;;;6.78;75.62
15405;BME280;7801;48.124;11.590;2024-02-21T01:48:24;96342.16;;;6.80;76.11
15405;BME280;7801;48.124;11.590;2024-02-21T01:50:51;96342.69;;;6.82;76.00
15405;BME280;7801;48.124;11.590;2024-02-21T01:53:20;96335.44;;;6.73;75.88
15405;BME280;7801;48.124;11.590;2024-02-21T01:55:47;96336.59;;;6.60;76.67
15405;BME280;7801;48.124;11.590;2024-02-21T01:58:16;96325.53;;;6.80;75.50
15405;BME280;7801;48.124;11.590;2024-02-21T02:00:43;96322.75;;;6.70;75.85
15405;BME280;7801;48.124;11.590;2024-02-21T02:03:12;96319.94;;;6.76;75.77
15405;BME280;7801;48.124;11.590;2024-02-21T02:05:51;96314.25;;;6.84;75.60
15405;BME280;7801;48.124;11.590;2024-02-21T02:08:18;96305.88;;;6.93;75.18
15405;BME280;7801;48.124;11.590;2024-02-21T02:10:44;96315.72;;;6.97;74.98
15405;BME280;7801;48.124;11.590;2024-02-21T02:13:10;96304.84;;;6.72;75.29
15405;BME280;7801;48.124;11.590;2024-02-21T02:15:46;96304.28;;;6.92;74.93
15405;BME280;7801;48.124;11.590;2024-02-21T02:18:13;96305.53;;;7.06;74.05
15405;BME280;7801;48.124;11.590;2024-02-21T02:20:39;96294.84;;;6.96;74.89
15405;BME280;7801;48.124;11.590;2024-02-21T02:25:47;96291.97;;;6.75;75.41
15405;BME280;7801;48.124;11.590;2024-02-21T02:28:17;96294.44;;;6.82;74.78
15405;BME280;7801;48.124;11.590;2024-02-21T02:30:43;96294.41;;;6.60;75.66
15405;BME280;7801;48.124;11.590;2024-02-21T02:33:08;96293.00;;;6.74;75.63
15405;BME280;7801;48.124;11.590;2024-02-21T02:35:34;96279.28;;;6.94;74.51
15405;BME280;7801;48.124;11.590;2024-02-21T02:38:01;96278.06;;;7.02;74.08
15405;BME280;7801;48.124;11.590;2024-02-21T02:40:26;96270.31;;;6.95;74.31
15405;BME280;7801;48.124;11.590;2024-02-21T02:42:52;96273.34;;;7.04;73.69
15405;BME280;7801;48.124;11.590;2024-02-21T02:45:20;96270.00;;;6.92;74.44
15405;BME280;7801;48.124;11.590;2024-02-21T02:47:47;96270.88;;;6.75;74.50
15405;BME280;7801;48.124;11.590;2024-02-21T02:50:12;96267.50;;;6.80;74.80
15405;BME280;7801;48.124;11.590;2024-02-21T02:52:38;96263.12;;;6.90;73.44
15405;BME280;7801;48.124;11.590;2024-02-21T02:55:05;96254.72;;;6.94;73.57
15405;BME280;7801;48.124;11.590;2024-02-21T02:57:30;96258.06;;;6.84;74.56
15405;BME280;7801;48.124;11.590;2024-02-21T02:59:56;96250.69;;;6.86;74.46
15405;BME280;7801;48.124;11.590;2024-02-21T03:02:21;96250.03;;;6.74;74.70
15405;BME280;7801;48.124;11.590;2024-02-21T03:04:46;96255.59;;;6.77;74.48
15405;BME280;7801;48.124;11.590;2024-02-21T03:07:11;96245.94;;;6.83;74.38
15405;BME280;7801;48.124;11.590;2024-02-21T03:09:37;96246.16;;;6.81;74.04
15405;BME280;7801;48.124;11.590;2024-02-21T03:12:04;96248.31;;;6.84;73.71
15405;BME280;7801;48.124;11.590;2024-02-21T03:14:31;96247.19;;;6.37;75.38
15405;BME280;7801;48.124;11.590;2024-02-21T03:16:58;96242.56;;;6.44;75.53
15405;BME280;7801;48.124;11.590;2024-02-21T03:19:25;96238.38;;;6.48;75.45
15405;BME280;7801;48.124;11.590;2024-02-21T03:21:52;96237.22;;;6.61;74.98
15405;BME280;7801;48.124;11.590;2024-02-21T03:24:18;96231.31;;;6.75;74.54
15405;BME280;7801;48.124;11.590;2024-02-21T03:26:43;96240.94;;;6.86;73.27
15405;BME280;7801;48.124;11.590;2024-02-21T03:29:10;96248.12;;;6.69;73.60
15405;BME280;7801;48.124;11.590;2024-02-21T03:31:36;96244.50;;;6.75;73.65
15405;BME280;7801;48.124;11.590;2024-02-21T03:34:01;96248.16;;;6.31;75.48
15405;BME280;7801;48.124;11.590;2024-02-21T03:36:27;96237.41;;;6.54;75.10
15405;BME280;7801;48.124;11.590;2024-02-21T03:38:54;96237.63;;;6.52;74.64
15405;BME280;7801;48.124;11.590;2024-02-21T03:41:19;96239.72;;;6.72;74.27
15405;BME280;7801;48.124;11.590;2024-02-21T03:43:44;96243.72;;;6.75;73.81
15405;BME280;7801;48.124;11.590;2024-02-21T03:46:10;96238.13;;;6.93;72.96
15405;BME280;7801;48.124;11.590;2024-02-21T03:48:36;96240.69;;;6.66;74.26
15405;BME280;7801;48.124;11.590;2024-02-21T03:51:02;96235.72;;;6.92;72.97
15405;BME280;7801;48.124;11.590;2024-02-21T03:53:27;96229.59;;;6.86;73.27
15405;BME280;7801;48.124;11.590;2024-02-21T03:55:53;96234.50;;;6.99;72.47
15405;BME280;7801;48.124;11.590;2024-02-21T03:58:19;96226.94;;;6.86;73.24
15405;BME280;7801;48.124;11.590;2024-02-21T04:00:45;96226.78;;;6.71;74.04
15405;BME280;7801;48.124;11.590;2024-02-21T04:03:10;96224.12;;;6.93;73.22
15405;BME280;7801;48.124;11.590;2024-02-21T04:05:35;96231.75;;;6.67;73.97
15405;BME280;7801;48.124;11.590;2024-02-21T04:08:04;96233.34;;;6.68;73.93
15405;BME280;7801;48.124;11.590;2024-02-21T04:10:30;96232.12;;;6.54;74.98
15405;BME280;7801;48.124;11.590;2024-02-21T04:12:55;96230.28;;;6.33;75.69
15405;BME280;7801;48.124;11.590;2024-02-21T04:15:20;96229.63;;;6.26;75.81
15405;BME280;7801;48.124;11.590;2024-02-21T04:17:45;96220.66;;;6.22;76.03
15405;BME280;7801;48.124;11.590;2024-02-21T04:20:16;96218.28;;;6.42;75.72
15405;BME280;7801;48.124;11.590;2024-02-21T04:22:44;96217.25;;;6.43;75.06
15405;BME280;7801;48.124;11.590;2024-02-21T04:25:10;96220.06;;;6.58;74.46
15405;BME280;7801;48.124;11.590;2024-02-21T04:27:36;96214.47;;;6.33;74.65
15405;BME280;7801;48.124;11.590;2024-02-21T04:30:02;96209.34;;;6.26;75.38
15405;BME280;7801;48.124;11.590;2024-02-21T04:32:27;96204.47;;;6.35;75.09
15405;BME280;7801;48.124;11.590;2024-02-21T04:34:53;96205.75;;;6.54;74.78
15405;BME280;7801;48.124;11.590;2024-02-21T04:37:18;96212.00;;;6.48;74.39
15405;BME280;7801;48.124;11.590;2024-02-21T04:39:44;96204.66;;;6.50;74.26
15405;BME280;7801;48.124;11.590;2024-02-21T04:42:09;96194.25;;;6.60;74.17
15405;BME280;7801;48.124;11.590;2024-02-21T04:44:34;96192.16;;;6.62;73.81
15405;BME280;7801;48.124;11.590;2024-02-21T04:47:00;96198.66;;;6.76;73.30
15405;BME280;7801;48.124;11.590;2024-02-21T04:49:27;96191.16;;;6.68;73.58
15405;BME280;7801;48.124;11.590;2024-02-21T04:51:54;96187.94;;;6.39;74.03
15405;BME280;7801;48.124;11.590;2024-02-21T04:54:19;96183.41;;;6.57;73.99
15405;BME280;7801;48.124;11.590;2024-02-21T04:56:44;96180.03;;;6.61;73.45
15405;BME280;7801;48.124;11.590;2024-02-21T04:59:09;96180.19;;;6.76;72.94
15405;BME280;7801;48.124;11.590;2024-02-21T05:01:35;96175.19;;;6.53;73.70
15405;BME280;7801;48.124;11.590;2024-02-21T05:04:00;96169.03;;;6.26;74.95
15405;BME280;7801;48.124;11.590;2024-02-21T05:06:25;96161.13;;;6.26;75.21
15405;BME280;7801;48.124;11.590;2024-02-21T05:08:51;96149.22;;;6.40;75.20
15405;BME280;7801;48.124;11.590;2024-02-21T05:11:16;96154.50;;;5.84;76.51
15405;BME280;7801;48.124;11.590;2024-02-21T05:13:42;96149.25;;;6.01;76.35
15405;BME280;7801;48.124;11.590;2024-02-21T05:16:07;96148.97;;;6.19;75.59
15405;BME280;7801;48.124;11.590;2024-02-21T05:18:33;96142.44;;;6.05;75.73
15405;BME280;7801;48.124;11.590;2024-02-21T05:20:59;96139.72;;;5.78;77.14
15405;BME280;7801;48.124;11.590;2024-02-21T05:23:24;96137.16;;;5.67;77.43
15405;BME280;7801;48.124;11.590;2024-02-21T05:25:50;96131.25;;;5.76;76.92
15405;BME280;7801;48.124;11.590;2024-02-21T05:28:15;96124.06;;;5.72;77.20
15405;BME280;7801;48.124;11.590;2024-02-21T05:30:41;96121.84;;;5.80;76.68
15405;BME280;7801;48.124;11.590;2024-02-21T05:33:08;96120.94;;;5.92;76.15
15405;BME280;7801;48.124;11.590;2024-02-21T05:35:34;96120.56;;;5.66;76.75
15405;BME280;7801;48.124;11.590;2024-02-21T05:37:59;96129.19;;;5.78;76.49
15405;BME280;7801;48.124;11.590;2024-02-21T05:40:25;96122.69;;;5.86;75.87
15405;BME280;7801;48.124;11.590;2024-02-21T05:42:51;96118.00;;;5.71;76.52
15405;BME280;7801;48.124;11.590;2024-02-21T05:45:17;96109.94;;;5.95;75.62
15405;BME280;7801;48.124;11.590;2024-02-21T05:47:42;96108.03;;;5.90;75.05
15405;BME280;7801;48.124;11.590;2024-02-21T05:50:09;96106.25;;;5.96;74.94
15405;BME280;7801;48.124;11.590;2024-02-21T05:52:34;96105.03;;;5.86;75.52
15405;BME280;7801;48.124;11.590;2024-02-21T05:54:59;96105.34;;;6.07;74.77
15405;BME280;7801;48.124;11.590;2024-02-21T05:57:25;96095.25;;;6.20;74.25
15405;BME280;7801;48.124;11.590;2024-02-21T05:59:50;96089.66;;;6.17;73.80
15405;BME280;7801;48.124;11.590;2024-02-21T06:02:15;96092.06;;;6.18;73.78
15405;BME280;7801;48.124;11.590;2024-02-21T06:04:41;96085.06;;;6.07;74.12
15405;BME280;7801;48.124;11.590;2024-02-21T06:07:08;96081.03;;;5.83;74.78
15405;BME280;7801;48.124;11.590;2024-02-21T06:09:35;96067.63;;;6.01;74.32
15405;BME280;7801;48.124;11.590;2024-02-21T06:12:00;96077.47;;;5.89;74.74
15405;BME280;7801;48.124;11.590;2024-02-21T06:14:26;96077.59;;;5.99;74.32
15405;BME280;7801;48.124;11.590;2024-02-21T06:16:51;96076.63;;;5.67;75.01
15405;BME280;7801;48.124;11.590;2024-02-21T06:19:16;96083.37;;;5.79;74.51
15405;BME280;7801;48.124;11.590;2024-02-21T06:21:42;96086.84;;;6.02;74.07
15405;BME280;7801;48.124;11.590;2024-02-21T06:24:07;96079.19;;;6.22;73.42
15405;BME280;7801;48.124;11.590;2024-02-21T06:26:32;96091.91;;;6.08;73.43
15405;BME280;7801;48.124;11.590;2024-02-21T06:28:58;96080.47;;;6.19;73.19
15405;BME280;7801;48.124;11.590;2024-02-21T06:31:25;96077.41;;;6.06;73.76
15405;BME280;7801;48.124;11.590;2024-02-21T06:33:51;96072.09;;;5.62;75.64
15405;BME280;7801;48.124;11.590;2024-02-21T06:36:17;96068.72;;;5.67;75.48
15405;BME280;7801;48.124;11.590;2024-02-21T06:38:42;96077.09;;;5.64;75.21
15405;BME280;7801;48.124;11.590;2024-02-21T06:41:17;96070.44;;;5.95;75.01
15405;BME280;7801;48.124;11.590;2024-02-21T06:43:47;96080.78;;;5.63;75.21
15405;BME280;7801;48.124;11.590;2024-02-21T06:46:22;96067.75;;;5.73;75.29
15405;BME280;7801;48.124;11.590;2024-02-21T06:48:48;96076.81;;;5.82;74.42
15405;BME280;7801;48.124;11.590;2024-02-21T06:51:14;96086.25;;;5.78;74.86
15405;BME280;7801;48.124;11.590;2024-02-21T06:53:39;96088.34;;;5.76;74.68
15405;BME280;7801;48.124;11.590;2024-02-21T06:56:05;96080.19;;;5.77;74.64
15405;BME280;7801;48.124;11.590;2024-02-21T06:58:30;96076.50;;;5.95;73.79
15405;BME280;7801;48.124;11.590;2024-02-21T07:00:56;96070.94;;;5.75;73.74
15405;BME280;7801;48.124;11.590;2024-02-21T07:03:21;96071.72;;;5.53;74.59
15405;BME280;7801;48.124;11.590;2024-02-21T07:05:46;96076.69;;;5.72;74.32
15405;BME280;7801;48.124;11.590;2024-02-21T07:08:12;96064.72;;;6.03;73.06
15405;BME280;7801;48.124;11.590;2024-02-21T07:10:37;96060.81;;;6.05;72.40
15405;BME280;7801;48.124;11.590;2024-02-21T07:13:02;96062.88;;;6.03;72.69
15405;BME280;7801;48.124;11.590;2024-02-21T07:15:28;96052.56;;;6.24;71.83
15405;BME280;7801;48.124;11.590;2024-02-21T07:17:55;96056.62;;;6.31;71.29
15405;BME280;7801;48.124;11.590;2024-02-21T07:20:21;96056.62;;;6.58;70.45
15405;BME280;7801;48.124;11.590;2024-02-21T07:22:46;96066.00;;;6.76;69.69
15405;BME280;7801;48.124;11.590;2024-02-21T07:25:11;96055.16;;;9.02;100.00
15405;BME280;7801;48.124;11.590;2024-02-21T07:27:37;96042.22;;;10.10;100.00
15405;BME280;7801;48.124;11.590;2024-02-21T07:30:03;96041.25;;;10.89;100.00
15405;BME280;7801;48.124;11.590;2024-02-21T07:32:28;96049.50;;;11.75;93.87
15405;BME280;7801;48.124;11.590;2024-02-21T07:34:53;96043.38;;;12.64;89.80
15405;BME280;7801;48.124;11.590;2024-02-21T07:37:19;96046.53;;;12.85;79.14
15405;BME280;7801;48.124;11.590;2024-02-21T07:39:44;96041.09;;;13.28;77.24
15405;BME280;7801;48.124;11.590;2024-02-21T07:42:09;96030.37;;;13.60;75.34
15405;BME280;7801;48.124;11.590;2024-02-21T07:44:35;96037.28;;;13.48;60.10
15405;BME280;7801;48.124;11.590;2024-02-21T07:47:00;96026.91;;;13.60;58.44
15405;BME280;7801;48.124;11.590;2024-02-21T07:49:26;96028.13;;;13.21;50.10
15405;BME280;7801;48.124;11.590;2024-02-21T07:51:51;96026.88;;;12.25;48.99
15405;BME280;7801;48.124;11.590;2024-02-21T07:54:18;96031.34;;;11.00;52.15
15405;BME280;7801;48.124;11.590;2024-02-21T07:56:43;96028.03;;;9.76;54.90
15405;BME280;7801;48.124;11.590;2024-02-21T07:59:08;96037.16;;;8.78;58.17
15405;BME280;7801;48.124;11.590;2024-02-21T08:01:33;96023.37;;;8.41;60.45
15405;BME280;7801;48.124;11.590;2024-02-21T08:04:00;96025.25;;;7.78;62.76
15405;BME280;7801;48.124;11.590;2024-02-21T08:06:25;96025.62;;;7.44;65.01
15405;BME280;7801;48.124;11.590;2024-02-21T08:08:50;96014.91;;;7.66;64.57
15405;BME280;7801;48.124;11.590;2024-02-21T08:11:16;96003.62;;;7.86;64.15
15405;BME280;7801;48.124;11.590;2024-02-21T08:13:43;95992.97;;;7.61;63.86
15405;BME280;7801;48.124;11.590;2024-02-21T08:16:08;95981.91;;;7.74;64.33
15405;BME280;7801;48.124;11.590;2024-02-21T08:18:33;95973.91;;;7.53;64.65
15405;BME280;7801;48.124;11.590;2024-02-21T08:21:03;95966.41;;;7.92;64.10
15405;BME280;7801;48.124;11.590;2024-02-21T08:23:28;95964.81;;;7.86;63.62
15405;BME280;7801;48.124;11.590;2024-02-21T08:25:53;95967.50;;;8.02;63.74
15405;BME280;7801;48.124;11.590;2024-02-21T08:28:19;95962.22;;;8.17;62.70
15405;BME280;7801;48.124;11.590;2024-02-21T08:30:46;95967.44;;;7.81;63.65
15405;BME280;7801;48.124;11.590;2024-02-21T08:33:15;95967.25;;;8.08;63.21
15405;BME280;7801;48.124;11.590;2024-02-21T08:35:41;95961.13;;;7.87;63.16
15405;BME280;7801;48.124;11.590;2024-02-21T08:38:07;95960.56;;;7.90;62.84
15405;BME280;7801;48.124;11.590;2024-02-21T08:40:32;95961.37;;;7.96;63.03
15405;BME280;7801;48.124;11.590;2024-02-21T08:43:00;95961.44;;;8.16;62.34
15405;BME280;7801;48.124;11.590;2024-02-21T08:45:25;95965.75;;;8.58;63.04
15405;BME280;7801;48.124;11.590;2024-02-21T08:47:50;95969.16;;;8.33;61.90
15405;BME280;7801;48.124;11.590;2024-02-21T08:50:17;95971.03;;;8.43;61.49
15405;BME280;7801;48.124;11.590;2024-02-21T08:52:42;95979.44;;;8.30;60.85
15405;BME280;7801;48.124;11.590;2024-02-21T08:55:08;95972.03;;;8.21;60.58
15405;BME280;7801;48.124;11.590;2024-02-21T08:57:33;95968.09;;;8.39;60.82
15405;BME280;7801;48.124;11.590;2024-02-21T09:00:03;95969.44;;;8.57;61.28
15405;BME280;7801;48.124;11.590;2024-02-21T09:02:39;95973.16;;;8.46;61.12
15405;BME280;7801;48.124;11.590;2024-02-21T09:05:05;95968.66;;;8.61;59.63
15405;BME280;7801;48.124;11.590;2024-02-21T09:07:30;95963.63;;;8.65;59.30
15405;BME280;7801;48.124;11.590;2024-02-21T09:09:56;95961.25;;;8.79;58.67
15405;BME280;7801;48.124;11.590;2024-02-21T09:12:21;95961.25;;;8.79;58.54
15405;BME280;7801;48.124;11.590;2024-02-21T09:14:47;95958.34;;;8.90;58.19
15405;BME280;7801;48.124;11.590;2024-02-21T09:17:16;95962.56;;;8.91;57.83
15405;BME280;7801;48.124;11.590;2024-02-21T09:19:42;95959.88;;;9.07;57.29
15405;BME280;7801;48.124;11.590;2024-02-21T09:22:08;95963.03;;;9.24;56.90
15405;BME280;7801;48.124;11.590;2024-02-21T09:24:33;95964.28;;;9.42;56.40
15405;BME280;7801;48.124;11.590;2024-02-21T09:26:58;95961.06;;;9.60;56.50
15405;BME280;7801;48.124;11.590;2024-02-21T09:29:25;95968.28;;;9.44;54.57
15405;BME280;7801;48.124;11.590;2024-02-21T09:31:50;95977.84;;;9.25;56.40
15405;BME280;7801;48.124;11.590;2024-02-21T09:34:16;95973.03;;;9.37;56.00
15405;BME280;7801;48.124;11.590;2024-02-21T09:36:41;95963.69;;;9.70;55.81
15405;BME280;7801;48.124;11.590;2024-02-21T09:39:07;95965.53;;;9.70;55.98
15405;BME280;7801;48.124;11.590;2024-02-21T09:41:36;95974.88;;;9.47;57.51
15405;BME280;7801;48.124;11.590;2024-02-21T09:44:04;95961.09;;;9.50;55.05
15405;BME280;7801;48.124;11.590;2024-02-21T09:49:18;95954.09;;;9.79;54.59
15405;BME280;7801;48.124;11.590;2024-02-21T09:51:49;95948.13;;;9.53;55.97
15405;BME280;7801;48.124;11.590;2024-02-21T09:54:16;95947.28;;;9.63;55.71
15405;BME280;7801;48.124;11.590;2024-02-21T09:56:46;95946.72;;;9.66;55.43
15405;BME280;7801;48.124;11.590;2024-02-21T09:59:15;95946.09;;;9.89;56.73
15405;BME280;7801;48.124;11.590;2024-02-21T10:01:42;95944.97;;;10.00;54.45
15405;BME280;7801;48.124;11.590;2024-02-21T10:04:09;95936.03;;;9.91;54.76
15405;BME280;7801;48.124;11.590;2024-02-21T10:06:34;95940.53;;;9.86;54.94
15405;BME280;7801;48.124;11.590;2024-02-21T10:09:02;95943.75;;;9.83;54.47
15405;BME280;7801;48.124;11.590;2024-02-21T10:11:28;95932.84;;;9.94;53.68
15405;BME280;7801;48.124;11.590;2024-02-21T10:14:06;95933.75;;;10.19;52.71
15405;BME280;7801;48.124;11.590;2024-02-21T10:16:32;95928.09;;;10.36;52.00
15405;BME280;7801;48.124;11.590;2024-02-21T10:18:58;95928.59;;;10.38;53.01
15405;BME280;7801;48.124;11.590;2024-02-21T10:21:23;95927.47;;;10.44;53.62
15405;BME280;7801;48.124;11.590;2024-02-21T10:23:49;95919.38;;;10.30;53.43
15405;BME280;7801;48.124;11.590;2024-02-21T10:26:17;95930.06;;;10.54;51.37
15405;BME280;7801;48.124;11.590;2024-02-21T10:28:42;95922.63;;;10.56;51.63
15405;BME280;7801;48.124;11.590;2024-02-21T10:31:10;95922.06;;;10.59;50.99
15405;BME280;7801;48.124;11.590;2024-02-21T10:33:36;95914.53;;;10.71;51.06
15405;BME280;7801;48.124;11.590;2024-02-21T10:36:10;95921.56;;;10.86;50.72
15405;BME280;7801;48.124;11.590;2024-02-21T10:38:39;95912.25;;;10.88;51.48
15405;BME280;7801;48.124;11.590;2024-02-21T10:41:05;95910.25;;;10.75;50.68
15405;BME280;7801;48.124;11.590;2024-02-21T10:43:38;95900.47;;;10.71;49.51
15405;BME280;7801;48.124;11.590;2024-02-21T10:46:06;95893.03;;;10.73;50.34
15405;BME280;7801;48.124;11.590;2024-02-21T10:48:43;95892.03;;;10.92;49.49
15405;BME280;7801;48.124;11.590;2024-02-21T10:51:19;95875.91;;;10.84;49.86
15405;BME280;7801;48.124;11.590;2024-02-21T10:56:32;95858.56;;;11.20;49.27
15405;BME280;7801;48.124;11.590;2024-02-21T10:59:03;95847.81;;;11.49;47.41
15405;BME280;7801;48.124;11.590;2024-02-21T11:01:29;95841.03;;;11.62;47.82
15405;BME280;7801;48.124;11.590;2024-02-21T11:03:58;95839.22;;;11.57;46.47
15405;BME280;7801;48.124;11.590;2024-02-21T11:06:26;95836.59;;;11.76;46.52
15405;BME280;7801;48.124;11.590;2024-02-21T11:11:25;95823.13;;;11.67;46.59
15405;BME280;7801;48.124;11.590;2024-02-21T11:13:50;95822.91;;;11.64;47.09
15405;BME280;7801;48.124;11.590;2024-02-21T11:16:22;95811.72;;;11.67;47.01
15405;BME280;7801;48.124;11.590;2024-02-21T11:18:48;95807.19;;;11.86;46.17
15405;BME280;7801;48.124;11.590;2024-02-21T11:21:13;95800.44;;;11.94;45.09
15405;BME280;7801;48.124;11.590;2024-02-21T11:23:39;95795.31;;;11.84;46.25
15405;BME280;7801;48.124;11.590;2024-02-21T11:26:18;95780.22;;;12.12;44.49
15405;BME280;7801;48.124;11.590;2024-02-21T11:28:59;95777.53;;;11.98;44.14
15405;BME280;7801;48.124;11.590;2024-02-21T11:31:25;95773.16;;;12.21;43.82
15405;BME280;7801;48.124;11.590;2024-02-21T11:33:52;95767.44;;;12.27;44.40
15405;BME280;7801;48.124;11.590;2024-02-21T11:36:25;95762.72;;;12.24;43.37
15405;BME280;7801;48.124;11.590;2024-02-21T11:38:52;95763.59;;;12.20;43.31
15405;BME280;7801;48.124;11.590;2024-02-21T11:41:18;95755.06;;;12.36;41.94
15405;BME280;7801;48.124;11.590;2024-02-21T11:43:43;95753.91;;;12.43;40.81
15405;BME280;7801;48.124;11.590;2024-02-21T11:46:09;95746.38;;;12.31;40.76
15405;BME280;7801;48.124;11.590;2024-02-21T11:48:34;95748.34;;;12.25;40.89
15405;BME280;7801;48.124;11.590;2024-02-21T11:51:00;95746.56;;;12.34;41.30
15405;BME280;7801;48.124;11.590;2024-02-21T11:53:26;95732.87;;;12.27;42.48
15405;BME280;7801;48.124;11.590;2024-02-21T11:55:56;95728.94;;;12.52;40.92
15405;BME280;7801;48.124;11.590;2024-02-21T11:58:22;95730.53;;;12.39;42.00
15405;BME280;7801;48.124;11.590;2024-02-21T12:00:48;95723.13;;;12.36;41.79
15405;BME280;7801;48.124;11.590;2024-02-21T12:03:13;95712.78;;;12.49;42.22
15405;BME280;7801;48.124;11.590;2024-02-21T12:05:39;95706.50;;;12.45;41.79
15405;BME280;7801;48.124;11.590;2024-02-21T12:08:04;95702.22;;;12.71;40.17
15405;BME280;7801;48.124;11.590;2024-02-21T12:10:30;95693.97;;;12.59;41.02
15405;BME280;7801;48.124;11.590;2024-02-21T12:13:11;95686.66;;;12.78;39.94
15405;BME280;7801;48.124;11.590;2024-02-21T12:15:38;95680.34;;;12.74;41.40
15405;BME280;7801;48.124;11.590;2024-02-21T12:18:04;95677.06;;;12.91;41.94
15405;BME280;7801;48.124;11.590;2024-02-21T12:20:30;95675.34;;;12.59;40.61
15405;BME280;7801;48.124;11.590;2024-02-21T12:22:56;95682.03;;;12.70;40.78
15405;BME280;7801;48.124;11.590;2024-02-21T12:25:23;95672.47;;;12.69;41.18
15405;BME280;7801;48.124;11.590;2024-02-21T12:27:51;95660.94;;;12.60;40.47
15405;BME280;7801;48.124;11.590;2024-02-21T12:30:16;95660.75;;;12.56;39.44
15405;BME280;7801;48.124;11.590;2024-02-21T12:32:42;95658.28;;;12.60;38.71
15405;BME280;7801;48.124;11.590;2024-02-21T12:35:07;95649.97;;;12.75;39.59
15405;BME280;7801;48.124;11.590;2024-02-21T12:37:32;95642.69;;;12.81;38.88
15405;BME280;7801;48.124;11.590;2024-02-21T12:39:58;95642.34;;;12.96;39.60
15405;BME280;7801;48.124;11.590;2024-02-21T12:42:24;95635.69;;;12.85;39.35
15405;BME280;7801;48.124;11.590;2024-02-21T12:44:51;95629.41;;;12.67;38.73
15405;BME280;7801;48.124;11.590;2024-02-21T12:47:17;95623.28;;;12.66;38.18
15405;BME280;7801;48.124;11.590;2024-02-21T12:49:44;95620.63;;;12.53;36.57
15405;BME280;7801;48.124;11.590;2024-02-21T12:52:09;95612.31;;;12.82;36.96
15405;BME280;7801;48.124;11.590;2024-02-21T12:54:35;95600.03;;;12.94;36.90
15405;BME280;7801;48.124;11.590;2024-02-21T12:57:01;95603.56;;;13.03;38.32
15405;BME280;7801;48.124;11.590;2024-02-21T12:59:28;95599.22;;;13.07;38.54
15405;BME280;7801;48.124;11.590;2024-02-21T13:01:54;95597.19;;;13.13;37.29
15405;BME280;7801;48.124;11.590;2024-02-21T13:04:19;95589.94;;;13.05;36.90
15405;BME280;7801;48.124;11.590;2024-02-21T13:06:46;95587.00;;;13.06;36.60
15405;BME280;7801;48.124;11.590;2024-02-21T13:09:12;95573.66;;;13.06;36.72
15405;BME280;7801;48.124;11.590;2024-02-21T13:11:39;95575.97;;;12.99;35.27
15405;BME280;7801;48.124;11.590;2024-02-21T13:14:05;95574.53;;;13.16;36.11